Alicia, Arkansas
Current Conditions -  °F | °C
As of 6:56 PM on Friday 31 Oct 2014 (Local Time) from KM19 Reporting Station
Clear Clear  
Wind Chill: 41°   Ceiling: Unl
Heat Index: 47°   Visibility: 10mi
Dew Point: 21°   Wind: 13mph
Humidity: 36%   Direction: 350°N
Pressure: 30.32"   Gusts: NA
Location:  35.89°N, 91.08°W
Report Text: KM19 312356Z AUTO 35011KT 10SM CLR 08/M06 A3032 RMK AO2 51033 T00831061 10161 20083 SLP267
Loading
Personal Weather Stations






























Interactive Weather Map
Tropical Storm Tracking
New forecast layout! Learn more

10-Day Weather Forecast

Advertisements
Track Severe Weather on mobile